Inicio METAR Ruta Wind Satelite

Informe Meteorológico

Fecha: 2021/09/21 14:34:18 Local
2021.09.21 19:34 UTC


Operación:VFR
SKCC 211900Z 02004KT 330V100 9999 SCT023 SCT090 30/20 Q1011 RMK A2987 =

SKCC 211800Z 01004KT 280V070 9999 SCT022 SCT090 30/20 Q1012 RMK A2991
SKCC 211700Z 36005KT 9999 SCT022 SCT080 29/20 Q1013 RMK A2993
SKCC 211600Z 23006KT 9999 SCT022 BKN070 27/22 Q1014 RMK A2995
SKCC 211500Z 19009KT 9999 -DZ SCT020 BKN070 25/21 Q1015 RMK A2999
SKCC 211400Z 18010KT 9999 SCT020 BKN070 25/20 Q1016 RMK A3000

2021/09/21 18:51
TAF SKCC 211630Z 2118/2218 36010KT 9999 SCT015 BKN080
TEMPO 2121/2123 DZRA SCT015TCU BKN070
BECMG 2201/2203 VRB02KT
TEMPO 2209/2212 5000 BR SCT015
BECMG 2212/2214 16014KT TX33/2118Z TN23/2210Z